createdAt,value
2019-02-16T00:00:48.845Z,6.27
2019-02-16T00:03:17.936Z,6.87
2019-02-16T00:05:55.033Z,6.23
2019-02-16T00:08:24.998Z,6.50
2019-02-16T00:10:53.942Z,6.00
2019-02-16T00:13:23.111Z,6.43
2019-02-16T00:15:52.386Z,6.00
2019-02-16T00:18:23.066Z,6.97
2019-02-16T00:20:52.574Z,15.90
2019-02-16T00:23:21.515Z,7.57
2019-02-16T00:25:53.270Z,6.20
2019-02-16T00:28:22.384Z,6.10
2019-02-16T00:30:51.870Z,6.00
2019-02-16T00:33:21.169Z,6.47
2019-02-16T00:35:50.426Z,5.77
2019-02-16T00:38:19.371Z,5.90
2019-02-16T00:40:48.286Z,5.60
2019-02-16T00:43:17.378Z,5.67
2019-02-16T00:45:47.685Z,6.07
2019-02-16T00:48:16.744Z,5.33
2019-02-16T00:50:46.001Z,5.40
2019-02-16T00:53:15.160Z,5.87
2019-02-16T00:55:44.484Z,5.57
2019-02-16T00:58:13.589Z,5.67
2019-02-16T01:00:42.746Z,6.60
2019-02-16T01:03:11.669Z,5.13
2019-02-16T01:05:41.242Z,5.03
2019-02-16T01:08:10.265Z,5.00
2019-02-16T01:10:40.034Z,5.20
2019-02-16T01:13:09.587Z,5.60
2019-02-16T01:15:39.069Z,5.00
2019-02-16T01:18:09.242Z,5.07
2019-02-16T01:20:38.881Z,5.87
2019-02-16T01:23:08.240Z,5.23
2019-02-16T01:25:37.479Z,5.40
2019-02-16T01:28:07.506Z,5.07
2019-02-16T01:30:36.765Z,5.17
2019-02-16T01:33:05.993Z,5.63
2019-02-16T01:35:35.275Z,4.90
2019-02-16T01:38:04.299Z,5.43
2019-02-16T01:40:33.276Z,5.33
2019-02-16T01:43:02.882Z,5.57
2019-02-16T01:45:31.824Z,5.47
2019-02-16T01:48:00.968Z,5.20
2019-02-16T01:50:30.413Z,5.37
2019-02-16T01:52:59.579Z,4.87
2019-02-16T01:55:28.778Z,4.97
2019-02-16T01:57:57.762Z,5.27
2019-02-16T02:00:27.014Z,4.40
2019-02-16T02:02:56.013Z,4.90
2019-02-16T02:05:25.661Z,4.40
2019-02-16T02:07:54.808Z,4.80
2019-02-16T02:10:23.861Z,4.70
2019-02-16T02:12:53.769Z,4.70
2019-02-16T02:15:23.066Z,4.57
2019-02-16T02:17:53.808Z,4.50
2019-02-16T02:20:24.533Z,4.20
2019-02-16T02:22:53.923Z,4.10
2019-02-16T02:25:23.174Z,4.50
2019-02-16T02:27:52.421Z,4.23
2019-02-16T02:30:21.532Z,4.17
2019-02-16T02:32:50.814Z,4.30
2019-02-16T02:35:20.319Z,4.33
2019-02-16T02:37:49.599Z,4.13
2019-02-16T02:40:18.513Z,4.37
2019-02-16T02:42:49.091Z,4.33
2019-02-16T02:45:18.018Z,3.73
2019-02-16T02:47:47.089Z,3.87
2019-02-16T02:50:17.983Z,4.30
2019-02-16T02:52:47.083Z,4.20
2019-02-16T02:55:16.127Z,4.20
2019-02-16T02:57:45.110Z,4.07
2019-02-16T03:00:14.576Z,3.93
2019-02-16T03:02:43.769Z,4.13
2019-02-16T03:05:13.310Z,3.77
2019-02-16T03:07:42.439Z,4.03
2019-02-16T03:10:11.533Z,3.90
2019-02-16T03:12:40.753Z,4.27
2019-02-16T03:15:10.925Z,4.17
2019-02-16T03:17:40.238Z,4.00
2019-02-16T03:20:09.567Z,4.00
2019-02-16T03:23:15.125Z,4.13
2019-02-16T03:25:49.928Z,4.30
2019-02-16T03:28:33.992Z,4.00
2019-02-16T03:31:26.231Z,3.80
2019-02-16T03:33:58.133Z,4.43
2019-02-16T03:36:35.873Z,4.80
2019-02-16T03:39:10.622Z,3.90
2019-02-16T03:41:42.467Z,4.40
2019-02-16T03:44:11.414Z,4.13
2019-02-16T03:46:40.454Z,4.10
2019-02-16T03:49:09.704Z,3.90
2019-02-16T03:51:38.620Z,4.33
2019-02-16T03:54:07.613Z,4.17
2019-02-16T03:56:37.276Z,4.00
2019-02-16T03:59:06.734Z,4.50
2019-02-16T04:01:35.827Z,4.10
2019-02-16T04:04:05.534Z,4.13
2019-02-16T04:06:34.746Z,3.83
2019-02-16T04:09:05.569Z,4.10
2019-02-16T04:11:35.275Z,3.83
2019-02-16T04:14:04.586Z,4.33
2019-02-16T04:16:34.904Z,4.03
2019-02-16T04:19:03.992Z,4.07
2019-02-16T04:21:33.086Z,3.83
2019-02-16T04:24:02.025Z,4.20
2019-02-16T04:26:31.303Z,3.87
2019-02-16T04:29:00.370Z,4.20
2019-02-16T04:31:29.465Z,3.90
2019-02-16T04:33:59.011Z,4.20
2019-02-16T04:36:28.071Z,4.00
2019-02-16T04:38:57.075Z,4.27
2019-02-16T04:41:26.253Z,3.90
2019-02-16T04:43:55.365Z,4.20
2019-02-16T04:46:24.446Z,4.63
2019-02-16T04:48:57.645Z,4.00
2019-02-16T04:51:26.759Z,3.97
2019-02-16T04:53:55.834Z,4.40
2019-02-16T04:56:24.827Z,4.13
2019-02-16T04:58:53.806Z,4.20
2019-02-16T05:01:22.901Z,4.13
2019-02-16T05:03:53.171Z,3.93
2019-02-16T05:06:22.096Z,4.40
2019-02-16T05:08:51.229Z,4.07
2019-02-16T05:11:20.521Z,4.43
2019-02-16T05:13:49.450Z,3.73
2019-02-16T05:16:18.494Z,4.50
2019-02-16T05:18:49.025Z,4.20
2019-02-16T05:21:18.209Z,4.50
2019-02-16T05:23:47.204Z,4.17
2019-02-16T05:26:16.745Z,4.40
2019-02-16T05:28:45.837Z,4.57
2019-02-16T05:31:15.039Z,4.60
2019-02-16T05:33:44.856Z,4.60
2019-02-16T05:36:14.045Z,4.67
2019-02-16T05:38:43.233Z,4.67
2019-02-16T05:41:12.211Z,4.40
2019-02-16T05:43:41.209Z,4.57
2019-02-16T05:46:12.553Z,4.30
2019-02-16T05:48:41.861Z,5.10
2019-02-16T05:51:11.146Z,5.37
2019-02-16T05:53:40.236Z,5.13
2019-02-16T05:56:09.550Z,5.07
2019-02-16T05:58:38.861Z,4.33
2019-02-16T06:01:07.930Z,4.83
2019-02-16T06:03:37.025Z,5.10
2019-02-16T06:06:06.519Z,4.73
2019-02-16T06:08:35.646Z,5.00
2019-02-16T06:11:05.979Z,4.70
2019-02-16T06:13:35.860Z,5.10
2019-02-16T06:16:05.017Z,5.03
2019-02-16T06:18:34.057Z,4.83
2019-02-16T06:21:03.585Z,5.13
2019-02-16T06:23:32.579Z,4.87
2019-02-16T06:26:01.765Z,5.13
2019-02-16T06:28:33.101Z,4.93
2019-02-16T06:31:02.218Z,5.20
2019-02-16T06:33:31.610Z,5.23
2019-02-16T06:36:02.130Z,5.00
2019-02-16T06:38:31.043Z,4.80
2019-02-16T06:41:02.468Z,5.00
2019-02-16T06:43:31.576Z,5.20
2019-02-16T06:46:05.791Z,5.27
2019-02-16T06:48:36.290Z,5.50
2019-02-16T06:51:06.826Z,5.10
2019-02-16T06:53:36.118Z,4.87
2019-02-16T06:56:09.297Z,5.43
2019-02-16T06:58:38.219Z,5.30
2019-02-16T07:01:07.448Z,4.97
2019-02-16T07:03:37.014Z,5.27
2019-02-16T07:06:06.230Z,5.30
2019-02-16T07:08:35.208Z,6.47
2019-02-16T07:11:09.570Z,5.03
2019-02-16T07:13:38.941Z,5.57
2019-02-16T07:16:19.825Z,5.17
2019-02-16T07:19:02.700Z,5.67
2019-02-16T07:21:32.523Z,5.50
2019-02-16T07:24:02.282Z,5.20
2019-02-16T07:26:31.253Z,5.30
2019-02-16T07:29:00.261Z,5.70
2019-02-16T07:31:29.348Z,5.37
2019-02-16T07:33:59.543Z,6.17
2019-02-16T07:36:29.043Z,5.40
2019-02-16T07:38:58.014Z,5.53
2019-02-16T07:41:28.530Z,5.70
2019-02-16T07:43:59.482Z,6.07
2019-02-16T07:46:36.299Z,5.97
2019-02-16T07:49:08.205Z,5.60
2019-02-16T07:51:55.144Z,5.47
2019-02-16T07:54:32.344Z,5.33
2019-02-16T07:57:02.963Z,5.73
2019-02-16T07:59:33.691Z,5.57
2019-02-16T08:02:14.640Z,5.80
2019-02-16T08:04:54.819Z,5.53
2019-02-16T08:07:42.737Z,5.60
2019-02-16T08:10:28.439Z,5.77
2019-02-16T08:13:02.067Z,5.73
2019-02-16T08:15:38.759Z,5.77
2019-02-16T08:18:24.822Z,5.50
2019-02-16T08:20:58.529Z,5.33
2019-02-16T08:23:45.580Z,5.80
2019-02-16T08:26:28.790Z,5.87
2019-02-16T08:29:06.621Z,6.67
2019-02-16T08:31:37.190Z,5.57
2019-02-16T08:34:20.649Z,5.83
2019-02-16T08:37:12.484Z,6.53
2019-02-16T08:39:43.918Z,5.73
2019-02-16T08:42:14.521Z,6.17
2019-02-16T08:44:49.127Z,6.30
2019-02-16T08:47:23.355Z,6.50
2019-02-16T08:50:03.530Z,6.43
2019-02-16T08:52:37.591Z,6.57
2019-02-16T08:55:20.481Z,6.13
2019-02-16T08:57:57.231Z,6.37
2019-02-16T09:00:36.994Z,6.93
2019-02-16T09:03:10.262Z,6.93
2019-02-16T09:05:44.158Z,6.83
2019-02-16T09:08:20.834Z,6.80
2019-02-16T09:11:09.420Z,7.07
2019-02-16T09:13:40.114Z,6.93
2019-02-16T09:16:19.500Z,6.97
2019-02-16T09:19:11.107Z,7.10
2019-02-16T09:21:42.191Z,7.60
2019-02-16T09:24:18.514Z,7.53
2019-02-16T09:26:52.542Z,7.20
2019-02-16T09:29:39.012Z,7.40
2019-02-16T09:32:13.275Z,7.17
2019-02-16T09:34:43.854Z,7.20
2019-02-16T09:37:14.345Z,7.17
2019-02-16T09:40:01.790Z,7.30
2019-02-16T09:42:35.362Z,7.80
2019-02-16T09:45:06.890Z,7.83
2019-02-16T09:47:49.555Z,8.07
2019-02-16T09:50:36.291Z,8.23
2019-02-16T09:53:09.761Z,7.80
2019-02-16T09:55:40.326Z,9.13
2019-02-16T09:58:11.149Z,8.53
2019-02-16T10:00:56.851Z,8.90
2019-02-16T10:03:33.485Z,9.10
2019-02-16T10:06:20.472Z,9.03
2019-02-16T10:08:57.556Z,9.60
2019-02-16T10:11:28.154Z,9.70
2019-02-16T10:14:00.774Z,9.40
2019-02-16T10:16:31.755Z,9.90
2019-02-16T10:19:02.453Z,10.60
2019-02-16T10:21:39.425Z,10.07
2019-02-16T10:24:17.836Z,9.23
2019-02-16T10:26:45.555Z,10.33
2019-02-16T10:29:18.593Z,9.17
2019-02-16T10:31:52.876Z,9.97
2019-02-16T10:34:31.505Z,9.60
2019-02-16T10:37:05.449Z,10.10
2019-02-16T10:39:36.028Z,10.13
2019-02-16T10:42:06.630Z,10.37
2019-02-16T10:44:37.688Z,10.40
2019-02-16T10:47:26.314Z,10.47
2019-02-16T10:50:02.920Z,10.07
2019-02-16T10:52:38.334Z,10.67
2019-02-16T10:55:22.979Z,11.37
2019-02-16T10:57:53.925Z,10.57
2019-02-16T11:00:29.946Z,10.80
2019-02-16T11:03:01.292Z,10.60
2019-02-16T11:05:45.982Z,11.00
2019-02-16T11:08:19.641Z,10.83
2019-02-16T11:10:54.633Z,10.47
2019-02-16T11:13:43.783Z,11.00
2019-02-16T11:16:18.809Z,12.17
2019-02-16T11:18:49.425Z,11.63
2019-02-16T11:21:29.187Z,12.03
2019-02-16T11:24:06.033Z,11.67
2019-02-16T11:26:37.596Z,11.87
2019-02-16T11:29:08.113Z,12.10
2019-02-16T11:31:48.254Z,11.43
2019-02-16T11:34:22.161Z,12.40
2019-02-16T11:36:57.484Z,13.37
2019-02-16T11:39:34.471Z,12.87
2019-02-16T11:42:05.302Z,12.43
2019-02-16T11:44:35.810Z,12.70
2019-02-16T11:47:09.409Z,13.57
2019-02-16T11:49:39.917Z,13.33
2019-02-16T11:52:10.547Z,12.47
2019-02-16T11:54:52.954Z,12.37
2019-02-16T11:57:32.470Z,13.23
2019-02-16T12:00:18.433Z,13.27
2019-02-16T12:02:57.777Z,14.23
2019-02-16T12:05:28.625Z,12.70
2019-02-16T12:08:05.616Z,13.70
2019-02-16T12:10:53.871Z,13.43
2019-02-16T12:13:30.399Z,13.10
2019-02-16T12:16:01.671Z,13.97
2019-02-16T12:18:32.182Z,14.97
2019-02-16T12:21:05.583Z,14.80
2019-02-16T12:23:37.646Z,13.43
2019-02-16T12:26:12.875Z,14.43
2019-02-16T12:28:48.005Z,13.53
2019-02-16T12:31:18.854Z,12.73
2019-02-16T12:33:49.529Z,13.03
2019-02-16T12:36:27.609Z,12.70
2019-02-16T12:39:05.173Z,13.20
2019-02-16T12:41:42.712Z,13.70
2019-02-16T12:44:16.319Z,13.97
2019-02-16T12:47:03.845Z,12.97
2019-02-16T12:49:37.386Z,13.00
2019-02-16T12:52:10.669Z,12.73
2019-02-16T12:54:41.594Z,13.10
2019-02-16T12:57:15.537Z,12.93
2019-02-16T12:59:49.706Z,12.83
2019-02-16T13:02:26.018Z,13.13
2019-02-16T13:05:00.686Z,13.83
2019-02-16T13:07:31.565Z,13.30
2019-02-16T13:10:19.991Z,13.40
2019-02-16T13:12:54.135Z,13.37
2019-02-16T13:15:24.827Z,13.03
2019-02-16T13:17:55.552Z,13.60
2019-02-16T13:20:29.821Z,13.73
2019-02-16T13:23:15.450Z,13.30
2019-02-16T13:26:03.180Z,12.97
2019-02-16T13:28:33.830Z,13.07
2019-02-16T13:31:08.012Z,13.43
2019-02-16T13:33:47.533Z,13.87
2019-02-16T13:36:18.587Z,12.83
2019-02-16T13:38:52.969Z,12.77
2019-02-16T13:41:29.544Z,13.03
2019-02-16T13:44:09.178Z,13.13
2019-02-16T13:46:40.038Z,12.90
2019-02-16T13:49:16.393Z,11.83
2019-02-16T13:51:47.237Z,12.80
2019-02-16T13:57:08.313Z,12.67
2019-02-16T13:59:39.039Z,12.47
2019-02-16T14:02:26.378Z,11.60
2019-02-16T14:04:57.005Z,13.07
2019-02-16T14:07:27.794Z,13.03
2019-02-16T14:10:13.438Z,11.30
2019-02-16T14:12:50.285Z,12.27
2019-02-16T14:15:36.514Z,13.10
2019-02-16T14:18:05.446Z,11.80
2019-02-16T14:20:34.702Z,11.60
2019-02-16T14:23:04.057Z,12.87
2019-02-16T14:25:42.808Z,12.13
2019-02-16T14:28:05.353Z,11.77
2019-02-16T14:30:34.605Z,11.43
2019-02-16T14:33:03.554Z,11.77
2019-02-16T14:35:32.737Z,11.40
2019-02-16T14:38:03.876Z,11.37
2019-02-16T14:40:33.371Z,12.67
2019-02-16T14:43:02.547Z,12.70
2019-02-16T14:45:33.443Z,12.87
2019-02-16T14:48:02.493Z,11.90
2019-02-16T14:50:31.425Z,12.60
2019-02-16T14:53:00.700Z,12.30
2019-02-16T14:55:29.631Z,12.97
2019-02-16T14:57:58.599Z,12.13
2019-02-16T15:00:28.183Z,13.23
2019-02-16T15:02:58.917Z,12.37
2019-02-16T15:05:29.719Z,13.40
2019-02-16T15:11:41.188Z,13.30
2019-02-16T15:14:11.173Z,13.87
2019-02-16T15:16:40.982Z,12.77
2019-02-16T15:19:11.247Z,14.20
2019-02-16T15:21:46.269Z,13.57
2019-02-16T15:24:15.579Z,14.00
2019-02-16T15:26:44.738Z,14.17
2019-02-16T15:29:14.071Z,13.97
2019-02-16T15:31:43.675Z,14.03
2019-02-16T15:34:13.096Z,13.17
2019-02-16T15:36:42.366Z,13.33
2019-02-16T15:39:12.297Z,13.53
2019-02-16T15:41:42.784Z,13.93
2019-02-16T15:44:12.819Z,13.23
2019-02-16T15:46:41.746Z,14.57
2019-02-16T15:49:11.029Z,13.40
2019-02-16T15:51:40.300Z,12.83
2019-02-16T15:54:09.299Z,14.07
2019-02-16T15:56:38.378Z,13.63
2019-02-16T15:59:09.573Z,13.97
2019-02-16T16:01:38.780Z,15.20
2019-02-16T16:04:07.813Z,13.57
2019-02-16T16:06:37.083Z,15.63
2019-02-16T16:09:24.013Z,15.27
2019-02-16T16:11:55.413Z,15.17
2019-02-16T16:14:42.611Z,14.80
2019-02-16T16:17:18.984Z,15.47
2019-02-16T16:19:59.111Z,15.97
2019-02-16T16:22:36.295Z,15.50
2019-02-16T16:25:17.268Z,16.17
2019-02-16T16:27:48.133Z,15.73
2019-02-16T16:30:27.840Z,15.83
2019-02-16T16:33:04.154Z,16.80
2019-02-16T16:35:44.780Z,17.23
2019-02-16T16:38:18.750Z,17.73
2019-02-16T16:40:52.010Z,16.70
2019-02-16T16:43:26.085Z,18.33
2019-02-16T16:45:59.677Z,17.67
2019-02-16T16:48:50.349Z,16.83
2019-02-16T16:51:26.704Z,16.47
2019-02-16T16:54:18.535Z,15.87
2019-02-16T16:56:53.955Z,15.67
2019-02-16T16:59:37.385Z,15.27
2019-02-16T17:02:14.258Z,15.07
2019-02-16T17:04:47.828Z,15.20
2019-02-16T17:07:27.801Z,14.77
2019-02-16T17:10:14.641Z,16.87
2019-02-16T17:12:54.235Z,16.63
2019-02-16T17:15:41.556Z,15.83
2019-02-16T17:26:14.599Z,16.30
2019-02-16T17:28:49.071Z,16.43
2019-02-16T17:31:29.438Z,15.80
2019-02-16T17:34:17.596Z,15.43
2019-02-16T17:37:03.221Z,16.03
2019-02-16T17:39:48.650Z,17.23
2019-02-16T17:42:36.384Z,20.17
2019-02-16T17:45:17.547Z,18.40
2019-02-16T17:48:04.782Z,16.63
2019-02-16T17:50:43.450Z,17.90
2019-02-16T17:53:23.809Z,17.67
2019-02-16T17:55:54.701Z,18.33
2019-02-16T17:58:42.895Z,21.73
2019-02-16T18:01:32.162Z,18.27
2019-02-16T18:04:19.964Z,19.07
2019-02-16T18:07:09.041Z,20.07
2019-02-16T18:09:53.030Z,19.40
2019-02-16T18:12:28.319Z,19.43
2019-02-16T18:15:16.076Z,18.10
2019-02-16T18:18:02.243Z,17.63
2019-02-16T18:20:33.407Z,18.00
2019-02-16T18:23:06.820Z,17.30
2019-02-16T18:25:37.756Z,18.63
2019-02-16T18:28:14.613Z,17.97
2019-02-16T18:30:45.440Z,18.03
2019-02-16T18:44:17.327Z,18.70
2019-02-16T18:47:04.691Z,19.23
2019-02-16T18:49:42.668Z,20.33
2019-02-16T18:52:22.564Z,19.63
2019-02-16T18:55:10.206Z,20.03
2019-02-16T18:57:33.503Z,20.60
2019-02-16T19:00:17.673Z,20.77
2019-02-16T19:03:05.208Z,21.80
2019-02-16T19:05:39.655Z,21.23
2019-02-16T19:08:26.526Z,21.10
2019-02-16T19:11:01.669Z,21.13
2019-02-16T19:13:36.048Z,20.90
2019-02-16T19:16:24.882Z,21.53
2019-02-16T19:19:05.342Z,21.73
2019-02-16T19:21:36.568Z,21.53
2019-02-16T19:24:08.463Z,21.70
2019-02-16T19:26:56.075Z,21.30
2019-02-16T19:29:31.534Z,20.80
2019-02-16T19:32:03.290Z,21.50
2019-02-16T19:34:37.979Z,21.03
2019-02-16T19:37:12.455Z,22.63
2019-02-16T19:39:43.993Z,21.27
2019-02-16T19:42:15.535Z,21.40
2019-02-16T19:44:54.071Z,21.03
2019-02-16T19:47:31.174Z,21.00
2019-02-16T19:50:03.631Z,20.47
2019-02-16T19:52:44.182Z,20.87
2019-02-16T19:55:15.841Z,19.93
2019-02-16T19:58:03.561Z,20.70
2019-02-16T20:00:37.815Z,20.20
2019-02-16T20:03:09.276Z,20.27
2019-02-16T20:05:40.848Z,20.30
2019-02-16T20:08:21.206Z,20.13
2019-02-16T20:10:55.851Z,21.20
2019-02-16T20:13:39.432Z,20.93
2019-02-16T20:16:10.961Z,22.33
2019-02-16T20:18:52.374Z,20.63
2019-02-16T20:21:24.007Z,20.43
2019-02-16T20:23:55.371Z,21.03
2019-02-16T20:26:33.258Z,21.90
2019-02-16T20:29:04.988Z,21.17
2019-02-16T20:31:55.684Z,21.20
2019-02-16T20:34:27.288Z,20.47
2019-02-16T20:36:58.768Z,20.87
2019-02-16T20:39:36.441Z,20.37
2019-02-16T20:42:16.824Z,21.90
2019-02-16T20:44:54.315Z,20.87
2019-02-16T20:47:44.079Z,21.23
2019-02-16T20:50:15.673Z,21.50
2019-02-16T20:52:50.668Z,21.70
2019-02-16T20:55:37.070Z,23.73
2019-02-16T20:58:08.545Z,21.70
2019-02-16T21:00:46.956Z,21.23
2019-02-16T21:03:21.406Z,21.20
2019-02-16T21:06:04.964Z,22.10
2019-02-16T21:08:39.433Z,21.90
2019-02-16T21:11:10.996Z,21.20
2019-02-16T21:13:48.136Z,21.40
2019-02-16T21:16:24.061Z,19.97
2019-02-16T21:18:58.785Z,21.50
2019-02-16T21:21:30.467Z,21.10
2019-02-16T21:24:02.620Z,21.23
2019-02-16T21:26:40.477Z,21.37
2019-02-16T21:29:12.782Z,21.77
2019-02-16T21:31:47.718Z,21.33
2019-02-16T21:34:31.755Z,22.27
2019-02-16T21:37:06.534Z,22.27
2019-02-16T21:39:41.344Z,24.60
2019-02-16T21:42:19.547Z,22.63
2019-02-16T21:44:54.145Z,21.70
2019-02-16T21:47:44.610Z,22.67
2019-02-16T21:50:16.335Z,21.47
2019-02-16T21:53:05.239Z,21.43
2019-02-16T21:55:36.862Z,20.50
2019-02-16T21:58:11.320Z,21.93
2019-02-16T22:00:46.579Z,22.93
2019-02-16T22:03:24.189Z,21.03
2019-02-16T22:06:12.495Z,20.37
2019-02-16T22:08:50.307Z,20.87
2019-02-16T22:11:38.474Z,20.40
2019-02-16T22:14:09.182Z,20.37
2019-02-16T22:16:39.840Z,21.00
2019-02-16T22:19:11.793Z,21.17
2019-02-16T22:21:42.439Z,20.60
2019-02-16T22:24:12.566Z,20.33
2019-02-16T22:26:43.419Z,20.90
2019-02-16T22:29:14.068Z,20.77
2019-02-16T22:31:44.419Z,22.27
2019-02-16T22:34:14.953Z,20.63
2019-02-16T22:36:45.683Z,19.97
2019-02-16T22:39:16.466Z,20.03
2019-02-16T22:41:46.440Z,19.57
2019-02-16T22:44:17.186Z,20.43
2019-02-16T22:46:47.614Z,20.47
2019-02-16T22:49:18.184Z,20.17
2019-02-16T22:51:48.779Z,19.10
2019-02-16T22:54:19.808Z,21.27
2019-02-16T22:56:53.015Z,20.40
2019-02-16T22:59:28.307Z,20.10
2019-02-16T23:01:58.786Z,20.03
2019-02-16T23:04:29.459Z,20.43
2019-02-16T23:06:59.816Z,20.53
2019-02-16T23:09:30.790Z,20.50
2019-02-16T23:12:01.083Z,20.60
2019-02-16T23:14:31.763Z,21.03
2019-02-16T23:17:03.212Z,20.87
2019-02-16T23:19:33.592Z,20.80
2019-02-16T23:22:03.790Z,20.50
2019-02-16T23:24:34.546Z,20.33
2019-02-16T23:29:43.818Z,20.27
2019-02-16T23:32:14.327Z,20.93
2019-02-16T23:34:45.503Z,20.97
2019-02-16T23:37:16.123Z,20.07
2019-02-16T23:39:46.354Z,19.90
2019-02-16T23:42:16.743Z,20.67
2019-02-16T23:44:47.414Z,21.30
2019-02-16T23:47:18.021Z,20.60
2019-02-16T23:49:48.307Z,20.07
2019-02-16T23:52:18.695Z,20.40
2019-02-16T23:54:48.643Z,19.83
2019-02-16T23:57:18.858Z,20.73
2019-02-16T23:59:49.996Z,20.57
